Newmarket on Fergus, Ireland
Current Conditions -  °F | °C
As of 12:00 PM on Saturday 20 Dec 2014 (Local Time) from EINN Reporting Station
Scattered Clouds Scattered Clouds  
Wind Chill: 43°   Ceiling: Unl
Heat Index: 48°   Visibility: 5mi
Dew Point: 45°   Wind: 12mph
Humidity: 87%   Direction: 260°W
Pressure: 30.42"   Gusts: NA
Location:  52.76°N, 8.9°W
Report Text: EINN 201200Z 26010KT 8000 FEW008 SCT030 09/07 Q1030 NOSIG
Loading
Personal Weather Stations






























Interactive Weather Map New forecast layout! Learn more

10-Day Weather Forecast

Advertisements
Track Severe Weather on mobile